LFMT/MPL METAR and TAF weather

Enter ICAO airport designator
Station Type Date Time Source
LFMT METAR 2020/04/10 19:30 UTC NOAA

LFMT 101930Z AUTO 22006KT CAVOK 14/13 Q1023


Station Type Date Time Source
LFMT Decoded METAR 2020/04/10 19:30 UTC NOAA

Montpellier, France (LFMT) 43-35N 003-58E 6M
Apr 10, 2020 - 03:30 PM EDT / 2020.04.10 1930 UTC
Wind: from the SW (220 degrees) at 7 MPH (6 KT):0
Visibility: greater than 7 mile(s):0
Temperature: 57 F (14 C)
Dew Point: 55 F (13 C)
Relative Humidity: 93%
Pressure (altimeter): 30.21 in. Hg (1023 hPa)
ob: LFMT 101930Z AUTO 22006KT CAVOK 14/13 Q1023
cycle: 19

Station Type Date Time Source
LFMT TAF 2020/04/09 21:33 UTC NOAA

TAF TAF LFMT 092100Z 0921/1009 CNL

Example: see airport list